Leon Corners, Illinois
Current Conditions -  °F | °C
As of 12:15 PM on Thursday 23 Oct 2014 (Local Time) from KSQI Reporting Station
Clear Clear  
Wind Chill: 15°   Ceiling: Unl
Heat Index: 15°   Visibility: 10mi
Dew Point:   Wind: 8mph
Humidity: 55%   Direction: 180°S
Pressure: 30.12"   Gusts: 16mph
Location:  41.5909°N, 89.9498°W
Report Text: KSQI 231715Z AUTO 18007G14KT 140V230 10SM CLR 15/06 A3012 RMK AO1
Loading
Personal Weather Stations






























Interactive Weather Map
Tropical Storm Tracking
New forecast layout! Learn more

10-Day Weather Forecast

Advertisements
Track Severe Weather on mobile